Terminal Aerodrome Forecast
Issued by NWS St Louis, MO

Home | Current Version | Previous Version | Text Only | Print | Product List | Glossary On
Versions: 1 2 3 4 5 6 7 8 9 10 11 12
000
FTUS43 KLSX 081700
TAFCOU
TAF
KCOU 081720Z 0818/0918 30012KT P6SM SCT035
     FM090100 28004KT P6SM SKC
     FM091500 33009KT P6SM SCT040=

USA.gov is the U.S. government's official web portal to all federal, state and local government web resources and services.